Time;durP1;ratioP1;P1;durP2;ratioP2;P2;SDS_P1;SDS_P2;PMS_P1;PMS_P2;Temp;Humidity;BMP_temperature;BMP_pressure;BME280_temperature;BME280_humidity;BME280_pressure;Samples;Min_cycle;Max_cycle;Signal;HPM_P1;HPM_P2
2022/01/20 00:01:47;;;;;;;;;;;;;;;3.28;100.00;101346.97;5013637;28;19956;-71
2022/01/20 00:04:43;;;;;;;;;;;;;;;3.25;100.00;101348.91;5013246;28;19975;-72
2022/01/20 00:28:41;;;;;;;;;;;;;;;3.22;100.00;101362.19;5012934;28;19925;-71
2022/01/20 00:31:36;;;;;;;;;;;;;;;3.16;100.00;101384.41;5014005;28;19986;-72
2022/01/20 00:34:31;;;;;;;;;;;;;;;3.19;100.00;101401.88;5012957;28;19971;-71
2022/01/20 00:37:16;;;;;;;;;;;;;;;3.20;100.00;101379.88;5013898;28;19933;-71
2022/01/20 00:40:00;;;;;;;;;;;;;;;3.19;100.00;101373.75;5014148;28;19971;-71
2022/01/20 00:42:44;;;;;;;;;;;;;;;3.19;100.00;101378.16;5014252;28;20432;-71
2022/01/20 00:45:28;;;;;;;;;;;;;;;3.12;100.00;101382.88;5013121;28;20028;-72
2022/01/20 00:48:12;;;;;;;;;;;;;;;3.16;100.00;101371.25;5013524;28;19940;-71
2022/01/20 00:50:56;;;;;;;;;;;;;;;3.26;100.00;101384.88;5012680;28;19944;-71
2022/01/20 00:53:44;;;;;;;;;;;;;;;3.20;100.00;101390.41;5012722;28;19928;-71
2022/01/20 00:56:27;;;;;;;;;;;;;;;3.27;100.00;101391.84;5013493;28;19924;-71
2022/01/20 00:59:11;;;;;;;;;;;;;;;3.26;100.00;101390.13;5013376;28;19925;-70
2022/01/20 01:01:56;;;;;;;;;;;;;;;3.27;100.00;101376.91;5012880;28;19971;-71
2022/01/20 01:04:40;;;;;;;;;;;;;;;3.33;100.00;101388.94;4998715;28;19995;-71
2022/01/20 01:07:43;;;;;;;;;;;;;;;3.35;100.00;101381.81;5013403;28;20447;-71
2022/01/20 01:10:29;;;;;;;;;;;;;;;3.40;100.00;101387.69;5012410;28;19928;-71
2022/01/20 01:13:15;;;;;;;;;;;;;;;3.38;100.00;101398.34;5012543;28;19925;-71
2022/01/20 01:15:59;;;;;;;;;;;;;;;3.42;100.00;101402.53;5012304;28;19925;-71
2022/01/20 01:22:02;;;;;;;;;;;;;;;3.47;100.00;101410.22;5012401;28;19995;-71
2022/01/20 01:24:46;;;;;;;;;;;;;;;3.42;100.00;101391.09;5012667;28;19925;-71
2022/01/20 01:27:34;;;;;;;;;;;;;;;3.42;100.00;101391.97;5013396;28;20153;-71
2022/01/20 01:33:07;;;;;;;;;;;;;;;3.46;100.00;101405.88;5013597;28;19972;-70
2022/01/20 01:35:56;;;;;;;;;;;;;;;3.47;100.00;101399.66;5013330;28;20400;-71
2022/01/20 01:38:42;;;;;;;;;;;;;;;3.46;100.00;101406.72;5012829;28;20007;-71
2022/01/20 01:41:33;;;;;;;;;;;;;;;3.50;100.00;101400.38;5013234;28;19920;-71
2022/01/20 01:44:23;;;;;;;;;;;;;;;3.49;100.00;101397.81;5012357;28;20056;-71
2022/01/20 01:47:07;;;;;;;;;;;;;;;3.45;100.00;101406.81;5017186;28;19928;-71
2022/01/20 01:49:50;;;;;;;;;;;;;;;3.46;100.00;101405.88;5015471;28;19948;-70
2022/01/20 01:52:34;;;;;;;;;;;;;;;3.42;100.00;101404.28;5016958;28;19956;-70
2022/01/20 01:55:18;;;;;;;;;;;;;;;3.44;100.00;101408.56;5015642;28;19925;-71
2022/01/20 01:58:02;;;;;;;;;;;;;;;3.41;100.00;101405.22;5016079;28;20324;-71
2022/01/20 02:00:46;;;;;;;;;;;;;;;3.41;100.00;101397.31;5016494;28;19983;-70
2022/01/20 02:03:32;;;;;;;;;;;;;;;3.42;100.00;101401.66;5015775;28;19928;-72
2022/01/20 02:06:36;;;;;;;;;;;;;;;3.45;100.00;101401.53;5016489;28;19925;-70
2022/01/20 02:18:38;;;;;;;;;;;;;;;3.38;100.00;101400.97;5015442;28;20396;-70
2022/01/20 02:21:22;;;;;;;;;;;;;;;3.46;100.00;101408.50;5016726;28;19968;-70
2022/01/20 02:24:06;;;;;;;;;;;;;;;3.38;100.00;101400.97;5016400;28;19971;-69
2022/01/20 02:26:49;;;;;;;;;;;;;;;3.39;100.00;101396.53;5016100;28;19967;-69
2022/01/20 02:29:33;;;;;;;;;;;;;;;3.40;100.00;101408.78;5016192;28;20435;-71
2022/01/20 02:32:17;;;;;;;;;;;;;;;3.47;100.00;101410.22;5015528;28;19940;-71
2022/01/20 02:35:02;;;;;;;;;;;;;;;3.41;100.00;101410.50;5016026;28;20403;-71
2022/01/20 02:37:49;;;;;;;;;;;;;;;3.40;100.00;101414.06;5016193;28;19975;-71
2022/01/20 02:46:28;;;;;;;;;;;;;;;3.38;100.00;101400.97;5015966;28;19939;-71
2022/01/20 02:49:16;;;;;;;;;;;;;;;3.37;100.00;101403.66;5014599;28;19971;-69
2022/01/20 02:52:01;;;;;;;;;;;;;;;3.38;100.00;101389.56;5014882;28;19987;-71
2022/01/20 02:54:45;;;;;;;;;;;;;;;3.36;100.00;101396.69;5015857;28;20288;-70
2022/01/20 02:57:28;;;;;;;;;;;;;;;3.37;100.00;101393.13;5015531;28;20368;-70
2022/01/20 03:00:13;;;;;;;;;;;;;;;3.28;100.00;101385.63;5014527;28;19964;-71
2022/01/20 03:02:57;;;;;;;;;;;;;;;3.17;100.00;101383.53;5014554;28;19940;-70
2022/01/20 03:05:41;;;;;;;;;;;;;;;3.13;100.00;101374.03;5015478;28;20043;-70
2022/01/20 03:08:24;;;;;;;;;;;;;;;3.11;100.00;101378.53;5015246;28;19924;-70
2022/01/20 03:11:08;;;;;;;;;;;;;;;3.24;100.00;101394.63;5015579;28;19923;-70
2022/01/20 03:13:52;;;;;;;;;;;;;;;3.18;100.00;101397.53;5015521;28;19972;-69
2022/01/20 03:16:36;;;;;;;;;;;;;;;3.22;100.00;101393.81;5015508;28;20289;-71
2022/01/20 03:19:20;;;;;;;;;;;;;;;3.20;100.00;101391.28;5015300;28;19924;-71
2022/01/20 03:22:04;;;;;;;;;;;;;;;3.23;100.00;101390.28;5014197;28;20282;-71
2022/01/20 03:24:48;;;;;;;;;;;;;;;3.21;100.00;101381.56;5015375;28;19924;-71
2022/01/20 03:27:32;;;;;;;;;;;;;;;3.24;100.00;101376.19;5015537;28;20056;-71
2022/01/20 03:30:16;;;;;;;;;;;;;;;3.17;100.00;101380.88;5014013;28;20349;-71
2022/01/20 03:33:00;;;;;;;;;;;;;;;3.15;100.00;101381.88;5014116;28;20016;-71
2022/01/20 03:35:44;;;;;;;;;;;;;;;3.15;100.00;101379.25;5014865;28;19924;-71
2022/01/20 03:38:27;;;;;;;;;;;;;;;3.23;100.00;101385.03;5000342;28;19968;-71
2022/01/20 03:41:11;;;;;;;;;;;;;;;3.15;100.00;101381.88;5000069;28;19967;-71
2022/01/20 03:43:55;;;;;;;;;;;;;;;3.14;100.00;101374.91;5013736;28;19925;-71
2022/01/20 03:46:39;;;;;;;;;;;;;;;3.22;100.00;101378.88;4999850;28;19933;-71
2022/01/20 03:52:26;;;;;;;;;;;;;;;3.12;100.00;101392.56;5013671;28;19929;-71
2022/01/20 03:55:10;;;;;;;;;;;;;;;3.23;100.00;101395.56;4999934;28;19933;-71
2022/01/20 03:57:54;;;;;;;;;;;;;;;3.19;100.00;101392.19;5036302;22;19976;-71
2022/01/20 04:00:38;;;;;;;;;;;;;;;3.20;100.00;101398.31;5014623;28;19928;-70
2022/01/20 04:03:22;;;;;;;;;;;;;;;3.19;100.00;101393.97;5013267;28;20296;-71
2022/01/20 04:06:06;;;;;;;;;;;;;;;3.23;100.00;101400.81;5014218;28;19923;-71
2022/01/20 04:08:50;;;;;;;;;;;;;;;3.21;100.00;101400.00;5012569;28;20347;-71
2022/01/20 04:11:34;;;;;;;;;;;;;;;3.20;100.00;101395.69;5013363;28;19971;-70
2022/01/20 04:14:20;;;;;;;;;;;;;;;3.22;100.00;101391.19;5013257;28;19984;-71
2022/01/20 04:17:04;;;;;;;;;;;;;;;3.21;100.00;101385.06;5013194;28;20293;-71
2022/01/20 04:19:48;;;;;;;;;;;;;;;3.20;100.00;101398.31;5013378;28;20265;-71
2022/01/20 04:22:32;;;;;;;;;;;;;;;3.25;100.00;101391.06;5014470;28;20373;-71
2022/01/20 04:25:16;;;;;;;;;;;;;;;3.23;100.00;101400.81;5013415;28;20015;-70
2022/01/20 04:28:00;;;;;;;;;;;;;;;3.25;100.00;101398.97;5013781;28;20285;-71
2022/01/20 04:30:44;;;;;;;;;;;;;;;3.26;100.00;101403.31;5012701;28;20020;-71
2022/01/20 04:33:28;;;;;;;;;;;;;;;3.22;100.00;101409.63;4999214;28;20372;-71
2022/01/20 04:36:12;;;;;;;;;;;;;;;3.22;100.00;101407.88;5012937;28;19924;-70
2022/01/20 04:38:56;;;;;;;;;;;;;;;3.22;100.00;101414.91;5012559;28;19971;-71
2022/01/20 04:41:39;;;;;;;;;;;;;;;3.20;100.00;101409.72;5012660;28;19932;-71
2022/01/20 04:44:43;;;;;;;;;;;;;;;3.23;100.00;101411.38;5013799;28;19924;-70
2022/01/20 04:47:36;;;;;;;;;;;;;;;3.24;100.00;101413.91;5012472;28;20335;-70
2022/01/20 04:59:29;;;;;;;;;;;;;;;3.51;100.00;101411.75;5013346;28;20426;-71
2022/01/20 05:02:12;;;;;;;;;;;;;;;3.43;100.00;101406.84;5012658;28;19928;-71
2022/01/20 05:04:56;;;;;;;;;;;;;;;3.44;100.00;101408.56;5012516;28;20277;-71
2022/01/20 05:07:40;;;;;;;;;;;;;;;3.43;100.00;101409.50;5012326;28;19968;-71
2022/01/20 05:10:24;;;;;;;;;;;;;;;3.48;100.00;101401.38;5013187;28;20399;-71
2022/01/20 05:13:22;;;;;;;;;;;;;;;3.47;100.00;101399.66;5013440;28;19924;-70
2022/01/20 05:16:06;;;;;;;;;;;;;;;3.48;100.00;101398.75;5013420;28;19924;-71
2022/01/20 05:18:50;;;;;;;;;;;;;;;3.40;100.00;101387.69;5013358;28;19971;-71
2022/01/20 05:21:34;;;;;;;;;;;;;;;3.32;100.00;101384.56;5016863;28;19966;-70
2022/01/20 05:24:18;;;;;;;;;;;;;;;3.27;100.00;101387.44;5017480;28;19924;-71
2022/01/20 05:27:02;;;;;;;;;;;;;;;3.30;100.00;101394.31;5017213;28;20123;-72
2022/01/20 05:29:46;;;;;;;;;;;;;;;3.21;100.00;101376.31;5002154;28;19929;-70
2022/01/20 05:32:29;;;;;;;;;;;;;;;3.21;100.00;101381.56;5016105;28;20021;-71
2022/01/20 05:35:13;;;;;;;;;;;;;;;3.20;100.00;101369.31;5016278;28;19924;-71
2022/01/20 05:37:57;;;;;;;;;;;;;;;3.21;100.00;101377.16;5015992;28;19924;-70
2022/01/20 05:40:42;;;;;;;;;;;;;;;3.25;100.00;101393.69;5015997;28;19945;-71
2022/01/20 05:43:26;;;;;;;;;;;;;;;3.25;100.00;101388.44;5016879;28;20012;-71
2022/01/20 05:46:10;;;;;;;;;;;;;;;3.35;100.00;101392.34;5002270;28;20111;-71
2022/01/20 05:48:58;;;;;;;;;;;;;;;3.26;100.00;101400.69;5016697;28;20512;-70
2022/01/20 05:51:42;;;;;;;;;;;;;;;3.27;100.00;101386.56;5017056;28;20293;-70
2022/01/20 05:54:25;;;;;;;;;;;;;;;3.29;100.00;101388.22;5016096;28;19924;-69
2022/01/20 05:57:10;;;;;;;;;;;;;;;3.30;100.00;101386.41;5015943;28;19933;-70
2022/01/20 05:59:55;;;;;;;;;;;;;;;3.37;100.00;101382.56;5016707;28;20008;-70
2022/01/20 06:05:41;;;;;;;;;;;;;;;3.30;100.00;101386.41;5016138;28;19924;-70
2022/01/20 06:08:25;;;;;;;;;;;;;;;3.28;100.00;101389.16;5015469;28;19983;-70
2022/01/20 06:11:09;;;;;;;;;;;;;;;3.31;100.00;101406.56;5015752;28;20403;-70
2022/01/20 06:13:53;;;;;;;;;;;;;;;3.34;100.00;101409.09;5015820;28;19925;-70
2022/01/20 06:16:38;;;;;;;;;;;;;;;3.41;100.00;101406.09;5015804;28;19928;-70
2022/01/20 06:19:24;;;;;;;;;;;;;;;3.31;100.00;101403.94;5015570;28;19948;-70
2022/01/20 06:22:13;;;;;;;;;;;;;;;3.29;100.00;101393.50;5001413;28;19924;-70
2022/01/20 06:24:56;;;;;;;;;;;;;;;3.27;100.00;101397.97;5015269;28;19924;-70
2022/01/20 06:27:40;;;;;;;;;;;;;;;3.29;100.00;101396.13;5015049;28;20023;-70
2022/01/20 06:30:25;;;;;;;;;;;;;;;3.25;100.00;101384.00;5014550;28;19928;-70
2022/01/20 06:33:09;;;;;;;;;;;;;;;3.20;100.00;101366.69;5015347;28;19924;-70
2022/01/20 06:35:53;;;;;;;;;;;;;;;3.19;100.00;101372.88;5015129;28;19944;-70
2022/01/20 06:38:36;;;;;;;;;;;;;;;3.17;100.00;101382.66;5015865;28;20005;-70
2022/01/20 06:41:20;;;;;;;;;;;;;;;3.28;100.00;101390.91;5014771;28;19967;-70
2022/01/20 06:44:05;;;;;;;;;;;;;;;3.18;100.00;101381.72;5015011;28;19924;-70
2022/01/20 06:46:49;;;;;;;;;;;;;;;3.13;100.00;101384.56;5001341;28;19978;-70
2022/01/20 06:49:33;;;;;;;;;;;;;;;3.17;100.00;101390.56;5015544;28;19972;-70
2022/01/20 06:52:17;;;;;;;;;;;;;;;3.11;100.00;101390.81;5015939;28;19948;-70
2022/01/20 06:55:05;;;;;;;;;;;;;;;3.09;100.00;101403.22;5014601;28;19940;-70
2022/01/20 06:57:48;;;;;;;;;;;;;;;3.10;100.00;101403.16;5015806;28;20420;-70
2022/01/20 07:00:32;;;;;;;;;;;;;;;3.10;100.00;101405.78;5014813;28;20024;-70
2022/01/20 07:03:16;;;;;;;;;;;;;;;3.13;100.00;101412.72;5015625;28;20012;-69
2022/01/20 07:06:00;;;;;;;;;;;;;;;3.14;100.00;101411.78;5015716;28;20020;-70
2022/01/20 07:08:44;;;;;;;;;;;;;;;3.12;100.00;101403.09;5015371;28;19939;-70
2022/01/20 07:11:28;;;;;;;;;;;;;;;3.11;100.00;101417.16;5015634;28;20068;-69
2022/01/20 07:14:12;;;;;;;;;;;;;;;3.20;100.00;101419.38;5015231;28;19956;-70
2022/01/20 07:16:56;;;;;;;;;;;;;;;3.21;100.00;101427.25;5014391;28;19933;-70
2022/01/20 07:19:39;;;;;;;;;;;;;;;3.19;100.00;101437.00;5014437;28;19944;-70
2022/01/20 07:22:23;;;;;;;;;;;;;;;3.28;100.00;101454.16;5000678;28;20004;-70
2022/01/20 07:25:07;;;;;;;;;;;;;;;3.20;100.00;101448.38;5015395;28;19927;-70
2022/01/20 07:27:51;;;;;;;;;;;;;;;3.17;100.00;101461.69;5015125;28;20364;-70
2022/01/20 07:30:35;;;;;;;;;;;;;;;3.22;100.00;101457.06;5014159;28;20016;-70
2022/01/20 07:33:20;;;;;;;;;;;;;;;3.22;100.00;101464.97;5013937;28;19928;-70
2022/01/20 07:36:04;;;;;;;;;;;;;;;3.24;100.00;101473.69;5013814;28;19924;-69
2022/01/20 07:38:48;;;;;;;;;;;;;;;3.28;100.00;101478.75;5014843;28;19976;-70
2022/01/20 07:41:32;;;;;;;;;;;;;;;3.25;100.00;101483.31;5014259;28;20023;-70
2022/01/20 07:44:17;;;;;;;;;;;;;;;3.34;100.00;101477.63;5014162;28;19954;-70
2022/01/20 07:47:01;;;;;;;;;;;;;;;3.31;100.00;101477.72;5013938;28;19925;-70
2022/01/20 07:49:45;;;;;;;;;;;;;;;3.31;100.00;101477.72;5013596;28;19928;-69
2022/01/20 07:52:29;;;;;;;;;;;;;;;3.30;100.00;101466.34;5015163;28;19967;-70
2022/01/20 07:55:13;;;;;;;;;;;;;;;3.34;100.00;101459.16;5014672;28;19925;-70
2022/01/20 07:57:56;;;;;;;;;;;;;;;3.36;100.00;101473.13;5013290;28;20004;-71
2022/01/20 08:00:40;;;;;;;;;;;;;;;3.37;100.00;101467.78;5013827;28;19983;-70
2022/01/20 08:03:24;;;;;;;;;;;;;;;3.38;100.00;101471.25;5013810;28;19925;-70
2022/01/20 08:06:08;;;;;;;;;;;;;;;3.45;100.00;101468.28;5013448;28;19980;-69
2022/01/20 08:08:52;;;;;;;;;;;;;;;3.51;100.00;101488.22;5014354;28;20431;-70
2022/01/20 08:11:36;;;;;;;;;;;;;;;3.63;100.00;101485.00;4999824;28;19972;-70
2022/01/20 08:14:20;;;;;;;;;;;;;;;3.52;100.00;101487.28;5012931;28;19984;-70
2022/01/20 08:17:04;;;;;;;;;;;;;;;3.58;100.00;101493.16;5013166;28;19925;-68
2022/01/20 08:19:49;;;;;;;;;;;;;;;3.66;100.00;101490.16;5014222;28;19987;-70
2022/01/20 08:22:34;;;;;;;;;;;;;;;3.66;100.00;101506.00;5014130;28;20043;-70
2022/01/20 08:25:19;;;;;;;;;;;;;;;3.74;100.00;101503.84;4999795;28;19924;-70
2022/01/20 08:28:03;;;;;;;;;;;;;;;3.70;100.00;101510.19;4999075;28;20055;-70
2022/01/20 08:30:46;;;;;;;;;;;;;;;3.70;100.00;101507.53;5012715;28;19933;-70
2022/01/20 08:33:32;;;;;;;;;;;;;;;3.68;100.00;101514.69;5011724;28;21432;-70
2022/01/20 08:36:16;;;;;;;;;;;;;;;3.71;100.00;101515.41;5014183;28;19925;-70
2022/01/20 08:39:00;;;;;;;;;;;;;;;3.66;100.00;101520.00;4998795;28;20010;-70
2022/01/20 08:41:44;;;;;;;;;;;;;;;3.60;100.00;101503.63;5012930;28;20483;-70
2022/01/20 08:44:28;;;;;;;;;;;;;;;3.64;100.00;101507.84;5014031;28;19975;-70
2022/01/20 08:47:20;;;;;;;;;;;;;;;3.76;100.00;101517.81;5013647;28;19964;-70
2022/01/20 08:50:05;;;;;;;;;;;;;;;3.92;100.00;101518.78;5012662;28;20020;-70
2022/01/20 08:52:49;;;;;;;;;;;;;;;3.92;100.00;101522.31;5012894;28;19924;-70
2022/01/20 08:55:33;;;;;;;;;;;;;;;4.07;100.00;101531.28;5012687;28;19924;-70
2022/01/20 08:58:17;;;;;;;;;;;;;;;4.15;100.00;101532.63;5013407;28;19925;-71
2022/01/20 09:01:03;;;;;;;;;;;;;;;4.16;100.00;101536.13;5013748;28;20336;-70
2022/01/20 09:03:47;;;;;;;;;;;;;;;4.16;100.00;101544.03;5012709;28;19928;-70
2022/01/20 09:06:31;;;;;;;;;;;;;;;4.13;100.00;101554.72;4998566;28;19964;-70
2022/01/20 09:09:20;;;;;;;;;;;;;;;4.20;100.00;101558.78;5013502;28;19929;-70
2022/01/20 09:15:27;;;;;;;;;;;;;;;4.28;100.00;101554.00;4990515;28;19924;-70
2022/01/20 09:18:11;;;;;;;;;;;;;;;4.19;100.00;101549.16;5012401;28;19939;-70
2022/01/20 09:20:55;;;;;;;;;;;;;;;4.17;100.00;101546.59;5013551;28;20055;-69
2022/01/20 09:23:39;;;;;;;;;;;;;;;4.24;100.00;101537.44;5013261;28;19980;-70
2022/01/20 09:26:23;;;;;;;;;;;;;;;4.32;100.00;101534.44;5012243;28;19987;-70
2022/01/20 09:29:07;;;;;;;;;;;;;;;4.58;100.00;101520.81;5013394;28;20369;-69
2022/01/20 09:31:53;;;;;;;;;;;;;;;4.58;100.00;101504.97;5013844;28;19976;-70
2022/01/20 09:34:36;;;;;;;;;;;;;;;4.63;100.00;101505.59;5013415;28;19979;-70
2022/01/20 09:37:20;;;;;;;;;;;;;;;4.69;100.00;101516.69;5013250;28;19991;-70
2022/01/20 09:40:05;;;;;;;;;;;;;;;4.70;100.00;101517.56;5013316;28;19941;-70
2022/01/20 09:42:49;;;;;;;;;;;;;;;4.66;100.00;101529.22;5012340;28;19924;-70
2022/01/20 09:45:33;;;;;;;;;;;;;;;4.69;100.00;101529.06;4998482;28;19968;-69
2022/01/20 09:48:17;;;;;;;;;;;;;;;4.76;100.00;101541.03;5012243;28;20396;-71
2022/01/20 09:51:00;;;;;;;;;;;;;;;4.75;100.00;101534.00;5012073;28;19928;-70
2022/01/20 09:53:44;;;;;;;;;;;;;;;4.95;100.00;101540.03;5013588;28;19940;-69
2022/01/20 09:56:28;;;;;;;;;;;;;;;4.98;100.00;101532.78;5013074;28;19964;-70
2022/01/20 09:59:12;;;;;;;;;;;;;;;4.89;100.00;101527.09;5014387;28;20013;-70
2022/01/20 10:01:58;;;;;;;;;;;;;;;5.00;100.00;101536.19;4998568;28;19925;-70
2022/01/20 10:04:41;;;;;;;;;;;;;;;5.08;100.00;101539.31;5012829;28;20068;-70
2022/01/20 10:07:30;;;;;;;;;;;;;;;4.81;100.00;101546.94;5015790;28;20017;-70
2022/01/20 10:10:14;;;;;;;;;;;;;;;4.93;100.00;101547.16;5016468;28;19928;-70
2022/01/20 10:13:05;;;;;;;;;;;;;;;5.28;100.00;101568.22;5017015;28;19924;-70
2022/01/20 10:15:56;;;;;;;;;;;;;;;6.60;100.00;101565.31;5015334;28;19925;-70
2022/01/20 10:18:47;;;;;;;;;;;;;;;8.39;100.00;101555.91;5016367;28;19932;-71
2022/01/20 10:21:35;;;;;;;;;;;;;;;10.31;96.27;101546.78;5001759;28;20364;-70
2022/01/20 10:24:19;;;;;;;;;;;;;;;11.23;77.25;101562.00;5015376;28;19972;-71
2022/01/20 10:27:12;;;;;;;;;;;;;;;9.91;81.57;101567.53;5015444;28;19944;-70
2022/01/20 10:29:57;;;;;;;;;;;;;;;8.35;93.17;101563.22;5016621;28;19979;-71
2022/01/20 10:32:43;;;;;;;;;;;;;;;8.17;97.27;101569.66;5015356;28;20026;-70
2022/01/20 10:35:31;;;;;;;;;;;;;;;6.92;100.00;101573.13;5001221;28;19924;-71
2022/01/20 10:38:17;;;;;;;;;;;;;;;5.96;100.00;101572.50;5015270;28;19963;-67
2022/01/20 10:41:02;;;;;;;;;;;;;;;5.98;100.00;101582.09;5014969;28;20383;-70
2022/01/20 10:43:46;;;;;;;;;;;;;;;5.74;100.00;101572.78;5015152;28;20384;-70
2022/01/20 10:46:40;;;;;;;;;;;;;;;5.53;100.00;101576.56;5015861;28;19927;-70
2022/01/20 10:49:30;;;;;;;;;;;;;;;5.48;100.00;101568.03;5001377;28;19928;-71
2022/01/20 10:52:14;;;;;;;;;;;;;;;5.62;100.00;101572.56;5015844;28;19972;-70
2022/01/20 10:54:58;;;;;;;;;;;;;;;5.46;100.00;101571.69;5001139;28;19924;-70
2022/01/20 10:57:42;;;;;;;;;;;;;;;5.56;100.00;101565.81;5015733;28;20360;-71
2022/01/20 11:00:26;;;;;;;;;;;;;;;5.65;100.00;101556.56;5015960;28;19941;-70
2022/01/20 11:03:10;;;;;;;;;;;;;;;5.66;100.00;101563.53;5015754;28;19977;-70
2022/01/20 11:05:56;;;;;;;;;;;;;;;5.68;100.00;101551.94;5000729;28;19940;-71
2022/01/20 11:08:42;;;;;;;;;;;;;;;5.84;100.00;101552.00;5014426;28;19986;-71
2022/01/20 11:11:26;;;;;;;;;;;;;;;5.80;100.00;101551.31;5014807;28;20335;-71
2022/01/20 11:14:11;;;;;;;;;;;;;;;5.66;100.00;101548.50;5015598;28;19975;-71
2022/01/20 11:16:54;;;;;;;;;;;;;;;5.53;100.00;101538.69;5014694;28;19925;-70
2022/01/20 11:19:38;;;;;;;;;;;;;;;5.55;100.00;101534.16;5014296;28;19924;-71
2022/01/20 11:22:22;;;;;;;;;;;;;;;5.59;100.00;101539.22;5014514;28;20322;-70
2022/01/20 11:25:08;;;;;;;;;;;;;;;6.16;100.00;101501.63;5015450;28;20292;-70
2022/01/20 11:28:01;;;;;;;;;;;;;;;6.63;100.00;101513.00;5014206;28;19963;-71
2022/01/20 11:30:55;;;;;;;;;;;;;;;7.24;100.00;101508.41;5000228;28;19971;-71
2022/01/20 11:33:40;;;;;;;;;;;;;;;9.14;95.35;101503.78;5013828;28;19967;-71
2022/01/20 11:36:24;;;;;;;;;;;;;;;10.53;84.48;101504.25;5013798;28;19924;-70
2022/01/20 11:39:08;;;;;;;;;;;;;;;11.96;71.34;101506.34;5014934;28;19963;-70
2022/01/20 11:41:53;;;;;;;;;;;;;;;11.27;72.37;101517.22;4999954;28;19925;-71
2022/01/20 11:44:37;;;;;;;;;;;;;;;10.45;76.44;101525.28;5013874;28;19967;-71
2022/01/20 11:47:29;;;;;;;;;;;;;;;9.55;80.62;101538.16;5000075;28;19937;-71
2022/01/20 11:50:17;;;;;;;;;;;;;;;9.38;77.24;101531.34;5013790;28;19979;-73
2022/01/20 11:53:10;;;;;;;;;;;;;;;7.42;88.04;101556.81;5013705;28;19924;-71
2022/01/20 11:55:54;;;;;;;;;;;;;;;5.87;100.00;101570.34;5014008;28;20396;-71
2022/01/20 11:58:39;;;;;;;;;;;;;;;5.06;100.00;101566.75;5013707;28;20389;-70
2022/01/20 12:01:22;;;;;;;;;;;;;;;4.68;100.00;101553.78;5014794;28;19936;-70
2022/01/20 12:04:06;;;;;;;;;;;;;;;4.56;100.00;101554.38;5015007;28;20387;-70
2022/01/20 12:06:50;;;;;;;;;;;;;;;4.23;100.00;101553.34;5013660;28;19967;-71
2022/01/20 12:09:35;;;;;;;;;;;;;;;3.89;100.00;101542.69;5013368;28;20400;-70
2022/01/20 12:12:22;;;;;;;;;;;;;;;3.64;100.00;101545.59;5013693;28;20008;-70
2022/01/20 12:15:11;;;;;;;;;;;;;;;3.75;100.00;101547.75;5013621;28;19924;-71
2022/01/20 12:17:55;;;;;;;;;;;;;;;3.78;100.00;101547.63;5014270;28;19940;-71
2022/01/20 12:20:39;;;;;;;;;;;;;;;3.89;100.00;101555.88;5014505;28;19925;-70
2022/01/20 12:23:24;;;;;;;;;;;;;;;3.96;100.00;101552.03;5013484;28;20008;-71
2022/01/20 12:26:07;;;;;;;;;;;;;;;3.98;100.00;101550.19;5013351;28;20462;-70
2022/01/20 12:28:58;;;;;;;;;;;;;;;3.86;100.00;101541.03;5012811;28;19943;-70
2022/01/20 12:31:47;;;;;;;;;;;;;;;3.77;100.00;101552.00;5014266;28;19925;-71
2022/01/20 12:34:31;;;;;;;;;;;;;;;3.68;100.00;101548.97;5013213;28;19924;-70
2022/01/20 12:37:15;;;;;;;;;;;;;;;3.75;100.00;101548.59;5012957;28;19964;-71
2022/01/20 12:39:59;;;;;;;;;;;;;;;3.73;100.00;101544.31;4999038;28;19960;-71
2022/01/20 12:42:43;;;;;;;;;;;;;;;3.79;100.00;101554.59;5013241;28;19971;-71
2022/01/20 12:48:30;;;;;;;;;;;;;;;3.70;100.00;101565.56;5012919;28;19928;-70
2022/01/20 12:51:14;;;;;;;;;;;;;;;3.85;100.00;101570.16;5013316;28;19950;-71
2022/01/20 12:54:05;;;;;;;;;;;;;;;3.87;100.00;101576.22;5012644;28;19975;-70
2022/01/20 12:56:50;;;;;;;;;;;;;;;3.89;100.00;101576.97;5012651;28;20015;-71
2022/01/20 12:59:41;;;;;;;;;;;;;;;3.88;100.00;101580.56;5012707;28;19924;-71
2022/01/20 13:02:27;;;;;;;;;;;;;;;3.98;100.00;101579.19;4999139;28;19972;-71
2022/01/20 13:05:11;;;;;;;;;;;;;;;4.08;100.00;101577.84;5013913;28;20375;-71
2022/01/20 13:07:58;;;;;;;;;;;;;;;3.97;100.00;101577.50;5012588;28;19977;-71
2022/01/20 13:10:44;;;;;;;;;;;;;;;4.04;100.00;101576.28;5013757;28;19928;-71
2022/01/20 13:13:28;;;;;;;;;;;;;;;4.17;100.00;101567.69;5013461;28;19924;-71
2022/01/20 13:16:15;;;;;;;;;;;;;;;4.14;100.00;101572.25;5013723;28;19924;-70
2022/01/20 13:19:00;;;;;;;;;;;;;;;4.18;100.00;101563.28;5012557;28;19940;-70
2022/01/20 13:21:53;;;;;;;;;;;;;;;4.14;100.00;101562.56;5012558;28;19924;-71
2022/01/20 13:24:37;;;;;;;;;;;;;;;4.27;100.00;101568.97;5012625;28;20071;-71
2022/01/20 13:27:21;;;;;;;;;;;;;;;4.26;100.00;101571.69;5013224;28;20020;-71
2022/01/20 13:30:05;;;;;;;;;;;;;;;4.36;100.00;101567.69;5012997;28;19928;-71
2022/01/20 13:32:49;;;;;;;;;;;;;;;4.65;100.00;101561.81;5012761;28;19964;-71
2022/01/20 13:35:41;;;;;;;;;;;;;;;4.77;100.00;101566.53;5014073;28;19924;-69
2022/01/20 13:38:31;;;;;;;;;;;;;;;4.72;100.00;101561.47;5014190;28;20285;-71
2022/01/20 13:41:19;;;;;;;;;;;;;;;4.62;100.00;101556.69;5016988;28;20014;-71
2022/01/20 13:47:09;;;;;;;;;;;;;;;4.72;100.00;101555.31;5018042;28;20020;-71
2022/01/20 13:49:53;;;;;;;;;;;;;;;4.68;100.00;101559.06;5016339;28;20008;-71
2022/01/20 13:52:40;;;;;;;;;;;;;;;4.66;100.00;101566.19;5002497;28;19928;-71
2022/01/20 13:55:26;;;;;;;;;;;;;;;4.85;100.00;101581.06;5017237;28;19971;-70
2022/01/20 13:58:20;;;;;;;;;;;;;;;5.15;100.00;101576.84;5015957;28;19945;-71
2022/01/20 14:01:06;;;;;;;;;;;;;;;5.23;100.00;101575.53;5016067;28;20515;-71
2022/01/20 14:03:50;;;;;;;;;;;;;;;5.29;100.00;101577.84;5016065;28;20451;-70
2022/01/20 14:06:34;;;;;;;;;;;;;;;5.36;100.00;101592.44;5015968;28;20392;-71
2022/01/20 14:09:18;;;;;;;;;;;;;;;5.67;100.00;101591.72;5015953;28;19996;-70
2022/01/20 14:12:03;;;;;;;;;;;;;;;5.67;100.00;101587.28;5015880;28;19975;-70
2022/01/20 14:14:46;;;;;;;;;;;;;;;5.49;100.00;101592.66;5016679;28;20413;-71
2022/01/20 14:17:36;;;;;;;;;;;;;;;5.44;100.00;101589.44;5016693;28;19992;-70
2022/01/20 14:20:23;;;;;;;;;;;;;;;5.51;100.00;101582.84;5016105;28;20014;-70
2022/01/20 14:23:06;;;;;;;;;;;;;;;5.58;100.00;101579.84;5015520;28;19925;-71
2022/01/20 14:25:52;;;;;;;;;;;;;;;5.70;100.00;101588.88;5015331;28;19929;-70
2022/01/20 14:28:36;;;;;;;;;;;;;;;5.74;100.00;101588.66;5015261;28;20286;-70
2022/01/20 14:31:20;;;;;;;;;;;;;;;5.66;100.00;101596.13;5015654;28;20308;-71
2022/01/20 14:34:04;;;;;;;;;;;;;;;5.58;100.00;101597.47;5015305;28;20335;-71
2022/01/20 14:36:48;;;;;;;;;;;;;;;5.59;100.00;101610.63;5015384;28;20276;-71
2022/01/20 14:39:32;;;;;;;;;;;;;;;5.51;100.00;101618.13;5015328;28;19924;-71
2022/01/20 14:42:16;;;;;;;;;;;;;;;5.37;100.00;101619.75;5015375;28;19972;-71
2022/01/20 14:45:00;;;;;;;;;;;;;;;5.30;100.00;101613.94;5015278;28;20013;-70
2022/01/20 14:47:44;;;;;;;;;;;;;;;5.17;100.00;101609.34;5001268;28;20016;-71
2022/01/20 14:50:28;;;;;;;;;;;;;;;5.02;100.00;101612.78;5014853;28;20016;-71
2022/01/20 14:53:13;;;;;;;;;;;;;;;4.93;100.00;101617.66;5014803;28;19925;-70
2022/01/20 14:55:58;;;;;;;;;;;;;;;4.94;100.00;101621.06;5015795;28;19967;-71
2022/01/20 14:58:41;;;;;;;;;;;;;;;4.92;100.00;101613.31;5015592;28;20293;-71
2022/01/20 15:01:25;;;;;;;;;;;;;;;4.92;100.00;101613.31;5015318;28;19968;-70
2022/01/20 15:04:09;;;;;;;;;;;;;;;4.80;100.00;101611.28;5015961;28;19924;-71
2022/01/20 15:06:53;;;;;;;;;;;;;;;4.73;100.00;101615.13;5014578;28;20249;-71
2022/01/20 15:09:37;;;;;;;;;;;;;;;4.60;100.00;101614.03;5015786;28;19927;-71
2022/01/20 15:12:21;;;;;;;;;;;;;;;4.55;100.00;101616.03;5015852;28;20016;-70
2022/01/20 15:15:06;;;;;;;;;;;;;;;4.53;100.00;101615.25;5015561;28;20404;-71
2022/01/20 15:17:49;;;;;;;;;;;;;;;4.47;100.00;101608.47;5014620;28;20289;-71